sensor_id;sensor_type;location;lat;lon;timestamp;temperature;humidity
25918;DHT22;13899;51.174;4.456;2023-10-09T00:01:07;17.90;99.90
25918;DHT22;13899;51.174;4.456;2023-10-09T00:03:45;18.20;99.90
25918;DHT22;13899;51.174;4.456;2023-10-09T00:06:12;18.30;99.90
25918;DHT22;13899;51.174;4.456;2023-10-09T00:08:39;18.60;99.90
25918;DHT22;13899;51.174;4.456;2023-10-09T00:11:10;18.60;99.90
25918;DHT22;13899;51.174;4.456;2023-10-09T00:13:46;18.70;99.90
25918;DHT22;13899;51.174;4.456;2023-10-09T00:16:16;18.90;99.90
25918;DHT22;13899;51.174;4.456;2023-10-09T00:18:42;18.60;99.90
25918;DHT22;13899;51.174;4.456;2023-10-09T00:21:19;18.50;99.90
25918;DHT22;13899;51.174;4.456;2023-10-09T00:23:48;18.50;99.90
25918;DHT22;13899;51.174;4.456;2023-10-09T00:26:25;18.40;99.90
25918;DHT22;13899;51.174;4.456;2023-10-09T00:28:51;18.30;99.90
25918;DHT22;13899;51.174;4.456;2023-10-09T00:31:18;18.10;99.90
25918;DHT22;13899;51.174;4.456;2023-10-09T00:33:55;18.20;99.90
25918;DHT22;13899;51.174;4.456;2023-10-09T00:36:21;18.30;99.90
25918;DHT22;13899;51.174;4.456;2023-10-09T00:38:54;18.10;99.90
25918;DHT22;13899;51.174;4.456;2023-10-09T00:41:20;18.10;99.90
25918;DHT22;13899;51.174;4.456;2023-10-09T00:43:48;18.10;99.90
25918;DHT22;13899;51.174;4.456;2023-10-09T00:46:18;18.40;99.90
25918;DHT22;13899;51.174;4.456;2023-10-09T00:48:51;18.50;99.90
25918;DHT22;13899;51.174;4.456;2023-10-09T00:51:17;18.20;99.90
25918;DHT22;13899;51.174;4.456;2023-10-09T00:53:51;17.80;99.90
25918;DHT22;13899;51.174;4.456;2023-10-09T00:56:19;17.60;99.90
25918;DHT22;13899;51.174;4.456;2023-10-09T00:59:03;17.50;99.90
25918;DHT22;13899;51.174;4.456;2023-10-09T01:01:39;17.60;99.90
25918;DHT22;13899;51.174;4.456;2023-10-09T01:04:23;17.40;99.90
25918;DHT22;13899;51.174;4.456;2023-10-09T01:06:50;17.40;99.90
25918;DHT22;13899;51.174;4.456;2023-10-09T01:09:33;17.40;99.90
25918;DHT22;13899;51.174;4.456;2023-10-09T01:12:04;17.50;99.90
25918;DHT22;13899;51.174;4.456;2023-10-09T01:14:30;17.40;99.90
25918;DHT22;13899;51.174;4.456;2023-10-09T01:17:02;17.30;99.90
25918;DHT22;13899;51.174;4.456;2023-10-09T01:19:28;17.50;99.90
25918;DHT22;13899;51.174;4.456;2023-10-09T01:21:54;17.70;99.90
25918;DHT22;13899;51.174;4.456;2023-10-09T01:24:20;17.90;99.90
25918;DHT22;13899;51.174;4.456;2023-10-09T01:26:47;17.90;99.90
25918;DHT22;13899;51.174;4.456;2023-10-09T01:29:18;18.00;99.90
25918;DHT22;13899;51.174;4.456;2023-10-09T01:31:49;18.00;99.90
25918;DHT22;13899;51.174;4.456;2023-10-09T01:34:22;18.40;99.90
25918;DHT22;13899;51.174;4.456;2023-10-09T01:37:04;18.50;99.90
25918;DHT22;13899;51.174;4.456;2023-10-09T01:39:31;18.80;99.90
25918;DHT22;13899;51.174;4.456;2023-10-09T01:42:05;18.60;99.90
25918;DHT22;13899;51.174;4.456;2023-10-09T01:44:32;18.50;99.90
25918;DHT22;13899;51.174;4.456;2023-10-09T01:47:03;18.00;99.90
25918;DHT22;13899;51.174;4.456;2023-10-09T01:49:40;18.10;99.90
25918;DHT22;13899;51.174;4.456;2023-10-09T01:52:12;18.20;99.90
25918;DHT22;13899;51.174;4.456;2023-10-09T01:54:43;18.20;99.90
25918;DHT22;13899;51.174;4.456;2023-10-09T01:57:13;17.70;99.90
25918;DHT22;13899;51.174;4.456;2023-10-09T01:59:43;17.70;99.90
25918;DHT22;13899;51.174;4.456;2023-10-09T02:02:10;17.50;99.90
25918;DHT22;13899;51.174;4.456;2023-10-09T02:05:01;17.50;99.90
25918;DHT22;13899;51.174;4.456;2023-10-09T02:07:45;17.80;99.90
25918;DHT22;13899;51.174;4.456;2023-10-09T02:10:20;17.70;99.90
25918;DHT22;13899;51.174;4.456;2023-10-09T02:13:02;17.80;99.90
25918;DHT22;13899;51.174;4.456;2023-10-09T02:15:33;17.90;99.90
25918;DHT22;13899;51.174;4.456;2023-10-09T02:18:12;17.90;99.90
25918;DHT22;13899;51.174;4.456;2023-10-09T02:23:31;17.90;99.90
25918;DHT22;13899;51.174;4.456;2023-10-09T02:26:18;17.80;99.90
25918;DHT22;13899;51.174;4.456;2023-10-09T02:29:02;17.60;99.90
25918;DHT22;13899;51.174;4.456;2023-10-09T02:31:44;17.00;99.90
25918;DHT22;13899;51.174;4.456;2023-10-09T02:34:12;17.10;99.90
25918;DHT22;13899;51.174;4.456;2023-10-09T02:36:38;17.40;99.90
25918;DHT22;13899;51.174;4.456;2023-10-09T02:39:07;17.50;99.90
25918;DHT22;13899;51.174;4.456;2023-10-09T02:41:47;17.70;99.90
25918;DHT22;13899;51.174;4.456;2023-10-09T02:44:15;17.50;99.90
25918;DHT22;13899;51.174;4.456;2023-10-09T02:46:41;17.40;99.90
25918;DHT22;13899;51.174;4.456;2023-10-09T02:49:06;17.40;99.90
25918;DHT22;13899;51.174;4.456;2023-10-09T02:51:34;17.70;99.90
25918;DHT22;13899;51.174;4.456;2023-10-09T02:54:07;17.50;99.90
25918;DHT22;13899;51.174;4.456;2023-10-09T02:56:43;17.30;99.90
25918;DHT22;13899;51.174;4.456;2023-10-09T02:59:09;17.20;99.90
25918;DHT22;13899;51.174;4.456;2023-10-09T03:01:37;17.10;99.90
25918;DHT22;13899;51.174;4.456;2023-10-09T03:04:04;17.10;99.90
25918;DHT22;13899;51.174;4.456;2023-10-09T03:06:32;17.20;99.90
25918;DHT22;13899;51.174;4.456;2023-10-09T03:09:01;17.20;99.90
25918;DHT22;13899;51.174;4.456;2023-10-09T03:11:48;17.30;99.90
25918;DHT22;13899;51.174;4.456;2023-10-09T03:14:19;17.50;99.90
25918;DHT22;13899;51.174;4.456;2023-10-09T03:16:46;17.40;99.90
25918;DHT22;13899;51.174;4.456;2023-10-09T03:19:14;17.60;99.90
25918;DHT22;13899;51.174;4.456;2023-10-09T03:21:40;17.40;99.90
25918;DHT22;13899;51.174;4.456;2023-10-09T03:24:07;17.20;99.90
25918;DHT22;13899;51.174;4.456;2023-10-09T03:26:34;17.30;99.90
25918;DHT22;13899;51.174;4.456;2023-10-09T03:29:00;17.10;99.90
25918;DHT22;13899;51.174;4.456;2023-10-09T03:31:35;16.90;99.90
25918;DHT22;13899;51.174;4.456;2023-10-09T03:34:02;17.40;99.90
25918;DHT22;13899;51.174;4.456;2023-10-09T03:36:28;17.20;99.90
25918;DHT22;13899;51.174;4.456;2023-10-09T03:38:56;17.50;99.90
25918;DHT22;13899;51.174;4.456;2023-10-09T03:41:24;17.20;99.90
25918;DHT22;13899;51.174;4.456;2023-10-09T03:43:52;17.20;99.90
25918;DHT22;13899;51.174;4.456;2023-10-09T03:46:20;17.00;99.90
25918;DHT22;13899;51.174;4.456;2023-10-09T03:48:52;16.90;99.90
25918;DHT22;13899;51.174;4.456;2023-10-09T03:51:22;16.50;99.90
25918;DHT22;13899;51.174;4.456;2023-10-09T03:53:49;16.60;99.90
25918;DHT22;13899;51.174;4.456;2023-10-09T03:56:15;16.50;99.90
25918;DHT22;13899;51.174;4.456;2023-10-09T03:58:45;16.40;99.90
25918;DHT22;13899;51.174;4.456;2023-10-09T04:01:13;16.50;99.90
25918;DHT22;13899;51.174;4.456;2023-10-09T04:03:56;16.50;99.90
25918;DHT22;13899;51.174;4.456;2023-10-09T04:06:26;16.80;99.90
25918;DHT22;13899;51.174;4.456;2023-10-09T04:09:04;16.90;99.90
25918;DHT22;13899;51.174;4.456;2023-10-09T04:11:54;17.10;99.90
25918;DHT22;13899;51.174;4.456;2023-10-09T04:14:39;16.80;99.90
25918;DHT22;13899;51.174;4.456;2023-10-09T04:17:20;16.80;99.90
25918;DHT22;13899;51.174;4.456;2023-10-09T04:19:59;16.70;99.90
25918;DHT22;13899;51.174;4.456;2023-10-09T04:22:43;16.60;99.90
25918;DHT22;13899;51.174;4.456;2023-10-09T04:25:25;16.50;99.90
25918;DHT22;13899;51.174;4.456;2023-10-09T04:28:01;16.20;99.90
25918;DHT22;13899;51.174;4.456;2023-10-09T04:30:44;16.40;99.90
25918;DHT22;13899;51.174;4.456;2023-10-09T04:33:15;16.60;99.90
25918;DHT22;13899;51.174;4.456;2023-10-09T04:36:12;16.50;99.90
25918;DHT22;13899;51.174;4.456;2023-10-09T04:38:48;16.60;99.90
25918;DHT22;13899;51.174;4.456;2023-10-09T04:41:29;16.50;99.90
25918;DHT22;13899;51.174;4.456;2023-10-09T04:44:08;16.40;99.90
25918;DHT22;13899;51.174;4.456;2023-10-09T04:46:59;16.50;99.90
25918;DHT22;13899;51.174;4.456;2023-10-09T04:49:40;16.50;99.90
25918;DHT22;13899;51.174;4.456;2023-10-09T04:52:18;16.30;99.90
25918;DHT22;13899;51.174;4.456;2023-10-09T04:54:50;16.20;99.90
25918;DHT22;13899;51.174;4.456;2023-10-09T04:57:38;16.30;99.90
25918;DHT22;13899;51.174;4.456;2023-10-09T05:00:25;16.50;99.90
25918;DHT22;13899;51.174;4.456;2023-10-09T05:02:55;16.90;99.90
25918;DHT22;13899;51.174;4.456;2023-10-09T05:05:28;16.90;99.90
25918;DHT22;13899;51.174;4.456;2023-10-09T05:10:49;16.80;99.90
25918;DHT22;13899;51.174;4.456;2023-10-09T05:13:36;16.70;99.90
25918;DHT22;13899;51.174;4.456;2023-10-09T05:18:55;17.00;99.90
25918;DHT22;13899;51.174;4.456;2023-10-09T05:23:56;16.40;99.90
25918;DHT22;13899;51.174;4.456;2023-10-09T05:26:47;16.30;99.90
25918;DHT22;13899;51.174;4.456;2023-10-09T05:31:51;16.60;99.90
25918;DHT22;13899;51.174;4.456;2023-10-09T05:34:37;16.50;99.90
25918;DHT22;13899;51.174;4.456;2023-10-09T05:37:27;16.40;99.90
25918;DHT22;13899;51.174;4.456;2023-10-09T05:40:06;16.60;99.90
25918;DHT22;13899;51.174;4.456;2023-10-09T05:42:44;16.80;99.90
25918;DHT22;13899;51.174;4.456;2023-10-09T05:45:11;16.90;99.90
25918;DHT22;13899;51.174;4.456;2023-10-09T05:47:49;17.10;99.90
25918;DHT22;13899;51.174;4.456;2023-10-09T05:50:34;17.50;99.90
25918;DHT22;13899;51.174;4.456;2023-10-09T05:53:01;17.60;99.90
25918;DHT22;13899;51.174;4.456;2023-10-09T05:55:29;17.00;99.90
25918;DHT22;13899;51.174;4.456;2023-10-09T05:58:13;16.70;99.90
25918;DHT22;13899;51.174;4.456;2023-10-09T06:00:57;16.50;99.90
25918;DHT22;13899;51.174;4.456;2023-10-09T06:03:41;16.30;99.90
25918;DHT22;13899;51.174;4.456;2023-10-09T06:06:26;16.30;99.90
25918;DHT22;13899;51.174;4.456;2023-10-09T06:09:10;16.30;99.90
25918;DHT22;13899;51.174;4.456;2023-10-09T06:11:56;16.60;99.90
25918;DHT22;13899;51.174;4.456;2023-10-09T06:14:41;16.50;99.90
25918;DHT22;13899;51.174;4.456;2023-10-09T06:17:23;16.90;99.90
25918;DHT22;13899;51.174;4.456;2023-10-09T06:19:49;16.80;99.90
25918;DHT22;13899;51.174;4.456;2023-10-09T06:22:17;16.80;99.90
25918;DHT22;13899;51.174;4.456;2023-10-09T06:25:01;16.70;99.90
25918;DHT22;13899;51.174;4.456;2023-10-09T06:27:34;16.70;99.90
25918;DHT22;13899;51.174;4.456;2023-10-09T06:30:00;16.40;99.90
25918;DHT22;13899;51.174;4.456;2023-10-09T06:32:38;16.60;99.90
25918;DHT22;13899;51.174;4.456;2023-10-09T06:35:15;16.80;99.90
25918;DHT22;13899;51.174;4.456;2023-10-09T06:37:51;16.60;99.90
25918;DHT22;13899;51.174;4.456;2023-10-09T06:40:29;16.80;99.90
25918;DHT22;13899;51.174;4.456;2023-10-09T06:43:13;17.20;99.90
25918;DHT22;13899;51.174;4.456;2023-10-09T06:45:43;17.30;99.90
25918;DHT22;13899;51.174;4.456;2023-10-09T06:48:12;17.50;99.90
25918;DHT22;13899;51.174;4.456;2023-10-09T06:50:57;17.90;99.90
25918;DHT22;13899;51.174;4.456;2023-10-09T06:53:33;18.10;99.90
25918;DHT22;13899;51.174;4.456;2023-10-09T06:56:18;17.40;99.90
25918;DHT22;13899;51.174;4.456;2023-10-09T07:01:26;17.10;99.90
25918;DHT22;13899;51.174;4.456;2023-10-09T07:04:21;16.80;99.90
25918;DHT22;13899;51.174;4.456;2023-10-09T07:07:10;16.60;99.90
25918;DHT22;13899;51.174;4.456;2023-10-09T07:09:41;16.80;99.90
25918;DHT22;13899;51.174;4.456;2023-10-09T07:12:11;16.80;99.90
25918;DHT22;13899;51.174;4.456;2023-10-09T07:14:46;17.20;99.90
25918;DHT22;13899;51.174;4.456;2023-10-09T07:17:12;17.20;99.90
25918;DHT22;13899;51.174;4.456;2023-10-09T07:19:56;16.90;99.90
25918;DHT22;13899;51.174;4.456;2023-10-09T07:22:34;17.20;99.90
25918;DHT22;13899;51.174;4.456;2023-10-09T07:25:05;17.20;99.90
25918;DHT22;13899;51.174;4.456;2023-10-09T07:27:53;16.80;99.90
25918;DHT22;13899;51.174;4.456;2023-10-09T07:30:21;16.80;99.90
25918;DHT22;13899;51.174;4.456;2023-10-09T07:32:56;17.00;99.90
25918;DHT22;13899;51.174;4.456;2023-10-09T07:35:34;17.30;99.90
25918;DHT22;13899;51.174;4.456;2023-10-09T07:40:45;17.50;99.90
25918;DHT22;13899;51.174;4.456;2023-10-09T07:43:32;17.60;99.90
25918;DHT22;13899;51.174;4.456;2023-10-09T07:46:08;17.90;99.90
25918;DHT22;13899;51.174;4.456;2023-10-09T07:48:53;17.90;99.90
25918;DHT22;13899;51.174;4.456;2023-10-09T07:51:23;18.20;99.90
25918;DHT22;13899;51.174;4.456;2023-10-09T07:53:56;18.00;99.90
25918;DHT22;13899;51.174;4.456;2023-10-09T07:56:25;17.60;99.90
25918;DHT22;13899;51.174;4.456;2023-10-09T07:58:56;17.80;99.90
25918;DHT22;13899;51.174;4.456;2023-10-09T08:01:25;18.00;99.90
25918;DHT22;13899;51.174;4.456;2023-10-09T08:03:54;18.10;99.90
25918;DHT22;13899;51.174;4.456;2023-10-09T08:06:26;17.90;99.90
25918;DHT22;13899;51.174;4.456;2023-10-09T08:09:10;17.70;99.90
25918;DHT22;13899;51.174;4.456;2023-10-09T08:11:46;17.50;99.90
25918;DHT22;13899;51.174;4.456;2023-10-09T08:14:13;17.70;99.90
25918;DHT22;13899;51.174;4.456;2023-10-09T08:16:50;18.00;99.90
25918;DHT22;13899;51.174;4.456;2023-10-09T08:19:53;18.50;99.90
25918;DHT22;13899;51.174;4.456;2023-10-09T08:22:29;18.80;99.90
25918;DHT22;13899;51.174;4.456;2023-10-09T08:24:56;19.50;99.90
25918;DHT22;13899;51.174;4.456;2023-10-09T08:27:25;19.50;99.90
25918;DHT22;13899;51.174;4.456;2023-10-09T08:30:05;19.60;99.90
25918;DHT22;13899;51.174;4.456;2023-10-09T08:32:39;19.90;99.90
25918;DHT22;13899;51.174;4.456;2023-10-09T08:35:08;20.00;99.90
25918;DHT22;13899;51.174;4.456;2023-10-09T08:37:52;19.70;99.90
25918;DHT22;13899;51.174;4.456;2023-10-09T08:43:23;19.10;99.90
25918;DHT22;13899;51.174;4.456;2023-10-09T08:45:57;19.00;99.90
25918;DHT22;13899;51.174;4.456;2023-10-09T08:48:28;19.00;99.90
25918;DHT22;13899;51.174;4.456;2023-10-09T08:50:55;19.00;99.90
25918;DHT22;13899;51.174;4.456;2023-10-09T08:53:22;19.10;99.90
25918;DHT22;13899;51.174;4.456;2023-10-09T08:55:50;19.40;99.90
25918;DHT22;13899;51.174;4.456;2023-10-09T08:58:17;19.30;99.90
25918;DHT22;13899;51.174;4.456;2023-10-09T09:00:58;19.70;99.90
25918;DHT22;13899;51.174;4.456;2023-10-09T09:03:26;20.30;99.90
25918;DHT22;13899;51.174;4.456;2023-10-09T09:05:59;20.50;99.90
25918;DHT22;13899;51.174;4.456;2023-10-09T09:08:32;20.70;99.90
25918;DHT22;13899;51.174;4.456;2023-10-09T09:11:12;20.70;99.90
25918;DHT22;13899;51.174;4.456;2023-10-09T09:13:42;20.80;99.90
25918;DHT22;13899;51.174;4.456;2023-10-09T09:16:25;20.70;99.90
25918;DHT22;13899;51.174;4.456;2023-10-09T09:18:59;20.80;99.90
25918;DHT22;13899;51.174;4.456;2023-10-09T09:21:28;20.60;99.90
25918;DHT22;13899;51.174;4.456;2023-10-09T09:23:59;21.00;99.90
25918;DHT22;13899;51.174;4.456;2023-10-09T09:26:35;21.20;99.90
25918;DHT22;13899;51.174;4.456;2023-10-09T09:29:06;21.30;99.90
25918;DHT22;13899;51.174;4.456;2023-10-09T09:31:35;21.40;99.90
25918;DHT22;13899;51.174;4.456;2023-10-09T09:34:04;21.30;99.90
25918;DHT22;13899;51.174;4.456;2023-10-09T09:36:48;21.30;99.90
25918;DHT22;13899;51.174;4.456;2023-10-09T09:39:20;20.50;99.90
25918;DHT22;13899;51.174;4.456;2023-10-09T09:41:53;20.20;99.90
25918;DHT22;13899;51.174;4.456;2023-10-09T09:44:20;19.90;99.90
25918;DHT22;13899;51.174;4.456;2023-10-09T09:46:51;19.80;99.90
25918;DHT22;13899;51.174;4.456;2023-10-09T09:49:20;20.10;99.90
25918;DHT22;13899;51.174;4.456;2023-10-09T09:51:47;20.30;99.90
25918;DHT22;13899;51.174;4.456;2023-10-09T09:54:14;20.30;99.90
25918;DHT22;13899;51.174;4.456;2023-10-09T09:56:44;20.20;99.90
25918;DHT22;13899;51.174;4.456;2023-10-09T09:59:18;20.50;99.90
25918;DHT22;13899;51.174;4.456;2023-10-09T10:01:49;20.90;99.90
25918;DHT22;13899;51.174;4.456;2023-10-09T10:04:26;21.00;99.90
25918;DHT22;13899;51.174;4.456;2023-10-09T10:06:52;21.90;99.90
25918;DHT22;13899;51.174;4.456;2023-10-09T10:09:46;21.90;99.90
25918;DHT22;13899;51.174;4.456;2023-10-09T10:12:14;21.90;99.90
25918;DHT22;13899;51.174;4.456;2023-10-09T10:14:58;21.60;99.90
25918;DHT22;13899;51.174;4.456;2023-10-09T10:17:25;21.60;99.90
25918;DHT22;13899;51.174;4.456;2023-10-09T10:20:00;21.70;99.90
25918;DHT22;13899;51.174;4.456;2023-10-09T10:22:44;22.00;99.90
25918;DHT22;13899;51.174;4.456;2023-10-09T10:28:20;22.20;99.90
25918;DHT22;13899;51.174;4.456;2023-10-09T10:31:08;22.10;99.90
25918;DHT22;13899;51.174;4.456;2023-10-09T10:36:23;22.50;99.90
25918;DHT22;13899;51.174;4.456;2023-10-09T10:39:07;23.20;99.90
25918;DHT22;13899;51.174;4.456;2023-10-09T10:41:36;23.00;99.90
25918;DHT22;13899;51.174;4.456;2023-10-09T10:44:32;22.90;99.90
25918;DHT22;13899;51.174;4.456;2023-10-09T10:47:09;23.10;99.90
25918;DHT22;13899;51.174;4.456;2023-10-09T10:49:52;23.30;99.90
25918;DHT22;13899;51.174;4.456;2023-10-09T10:52:27;23.70;99.90
25918;DHT22;13899;51.174;4.456;2023-10-09T10:55:16;23.80;99.90
25918;DHT22;13899;51.174;4.456;2023-10-09T10:57:45;23.20;99.90
25918;DHT22;13899;51.174;4.456;2023-10-09T11:00:21;23.40;99.90
25918;DHT22;13899;51.174;4.456;2023-10-09T11:03:06;23.40;99.90
25918;DHT22;13899;51.174;4.456;2023-10-09T11:05:43;23.60;99.90
25918;DHT22;13899;51.174;4.456;2023-10-09T11:08:16;23.00;99.90
25918;DHT22;13899;51.174;4.456;2023-10-09T11:10:48;23.00;99.90
25918;DHT22;13899;51.174;4.456;2023-10-09T11:13:25;23.00;99.90
25918;DHT22;13899;51.174;4.456;2023-10-09T11:16:04;23.30;99.90
25918;DHT22;13899;51.174;4.456;2023-10-09T11:18:54;24.10;99.90
25918;DHT22;13899;51.174;4.456;2023-10-09T11:21:22;24.70;99.90
25918;DHT22;13899;51.174;4.456;2023-10-09T11:23:57;24.70;99.90
25918;DHT22;13899;51.174;4.456;2023-10-09T11:26:46;24.20;99.90
25918;DHT22;13899;51.174;4.456;2023-10-09T11:29:19;23.70;99.90
25918;DHT22;13899;51.174;4.456;2023-10-09T11:32:07;23.30;99.90
25918;DHT22;13899;51.174;4.456;2023-10-09T11:34:46;23.90;99.90
25918;DHT22;13899;51.174;4.456;2023-10-09T11:37:25;24.20;99.90
25918;DHT22;13899;51.174;4.456;2023-10-09T11:39:59;24.20;99.90
25918;DHT22;13899;51.174;4.456;2023-10-09T11:42:29;24.50;99.90
25918;DHT22;13899;51.174;4.456;2023-10-09T11:45:05;24.80;99.90
25918;DHT22;13899;51.174;4.456;2023-10-09T11:47:52;24.80;99.90
25918;DHT22;13899;51.174;4.456;2023-10-09T11:50:43;25.10;99.90
25918;DHT22;13899;51.174;4.456;2023-10-09T11:53:10;25.30;99.90
25918;DHT22;13899;51.174;4.456;2023-10-09T11:55:49;24.90;99.90
25918;DHT22;13899;51.174;4.456;2023-10-09T11:58:15;24.90;99.90
25918;DHT22;13899;51.174;4.456;2023-10-09T12:00:49;25.30;99.90
25918;DHT22;13899;51.174;4.456;2023-10-09T12:03:14;25.10;99.90
25918;DHT22;13899;51.174;4.456;2023-10-09T12:05:40;24.40;99.90
25918;DHT22;13899;51.174;4.456;2023-10-09T12:08:11;24.90;99.90
25918;DHT22;13899;51.174;4.456;2023-10-09T12:10:37;25.10;99.90
25918;DHT22;13899;51.174;4.456;2023-10-09T12:13:06;25.00;99.90
25918;DHT22;13899;51.174;4.456;2023-10-09T12:15:33;24.80;99.90
25918;DHT22;13899;51.174;4.456;2023-10-09T12:18:06;25.10;99.90
25918;DHT22;13899;51.174;4.456;2023-10-09T12:20:40;25.10;99.90
25918;DHT22;13899;51.174;4.456;2023-10-09T12:23:06;25.50;99.90
25918;DHT22;13899;51.174;4.456;2023-10-09T12:25:33;25.00;99.90
25918;DHT22;13899;51.174;4.456;2023-10-09T12:28:01;24.80;99.90
25918;DHT22;13899;51.174;4.456;2023-10-09T12:30:30;24.70;99.90
25918;DHT22;13899;51.174;4.456;2023-10-09T12:32:57;24.90;99.90
25918;DHT22;13899;51.174;4.456;2023-10-09T12:35:26;25.30;99.90
25918;DHT22;13899;51.174;4.456;2023-10-09T12:37:53;24.90;99.90
25918;DHT22;13899;51.174;4.456;2023-10-09T12:40:23;24.80;99.90
25918;DHT22;13899;51.174;4.456;2023-10-09T12:42:53;24.30;99.90
25918;DHT22;13899;51.174;4.456;2023-10-09T12:45:19;24.10;99.90
25918;DHT22;13899;51.174;4.456;2023-10-09T12:47:54;24.00;99.90
25918;DHT22;13899;51.174;4.456;2023-10-09T12:50:29;24.10;99.90
25918;DHT22;13899;51.174;4.456;2023-10-09T12:52:56;23.70;99.90
25918;DHT22;13899;51.174;4.456;2023-10-09T12:55:22;23.40;99.90
25918;DHT22;13899;51.174;4.456;2023-10-09T12:57:59;23.80;99.90
25918;DHT22;13899;51.174;4.456;2023-10-09T13:00:26;24.20;99.90
25918;DHT22;13899;51.174;4.456;2023-10-09T13:02:52;24.40;99.90
25918;DHT22;13899;51.174;4.456;2023-10-09T13:05:18;24.50;99.90
25918;DHT22;13899;51.174;4.456;2023-10-09T13:07:53;24.70;99.90
25918;DHT22;13899;51.174;4.456;2023-10-09T13:10:19;24.90;99.90
25918;DHT22;13899;51.174;4.456;2023-10-09T13:12:45;25.20;99.90
25918;DHT22;13899;51.174;4.456;2023-10-09T13:15:11;25.40;99.90
25918;DHT22;13899;51.174;4.456;2023-10-09T13:17:37;26.40;99.90
25918;DHT22;13899;51.174;4.456;2023-10-09T13:20:04;26.30;99.90
25918;DHT22;13899;51.174;4.456;2023-10-09T13:22:41;26.10;99.90
25918;DHT22;13899;51.174;4.456;2023-10-09T13:25:11;25.00;99.90
25918;DHT22;13899;51.174;4.456;2023-10-09T13:27:50;24.80;99.90
25918;DHT22;13899;51.174;4.456;2023-10-09T13:30:20;24.90;99.90
25918;DHT22;13899;51.174;4.456;2023-10-09T13:32:51;25.40;99.90
25918;DHT22;13899;51.174;4.456;2023-10-09T13:35:20;25.20;99.90
25918;DHT22;13899;51.174;4.456;2023-10-09T13:37:53;25.10;99.90
25918;DHT22;13899;51.174;4.456;2023-10-09T13:40:22;24.90;99.90
25918;DHT22;13899;51.174;4.456;2023-10-09T13:42:54;24.70;99.90
25918;DHT22;13899;51.174;4.456;2023-10-09T13:45:27;24.80;99.90
25918;DHT22;13899;51.174;4.456;2023-10-09T13:47:56;24.90;99.90
25918;DHT22;13899;51.174;4.456;2023-10-09T13:50:26;25.00;99.90
25918;DHT22;13899;51.174;4.456;2023-10-09T13:52:58;24.70;99.90
25918;DHT22;13899;51.174;4.456;2023-10-09T13:55:24;24.70;99.90
25918;DHT22;13899;51.174;4.456;2023-10-09T13:58:00;24.50;99.90
25918;DHT22;13899;51.174;4.456;2023-10-09T14:00:25;24.20;99.90
25918;DHT22;13899;51.174;4.456;2023-10-09T14:03:07;24.00;99.90
25918;DHT22;13899;51.174;4.456;2023-10-09T14:05:40;24.20;99.90
25918;DHT22;13899;51.174;4.456;2023-10-09T14:08:23;23.90;99.90
25918;DHT22;13899;51.174;4.456;2023-10-09T14:10:51;23.70;99.90
25918;DHT22;13899;51.174;4.456;2023-10-09T14:13:17;23.90;99.90
25918;DHT22;13899;51.174;4.456;2023-10-09T14:15:52;24.20;99.90
25918;DHT22;13899;51.174;4.456;2023-10-09T14:18:22;24.00;99.90
25918;DHT22;13899;51.174;4.456;2023-10-09T14:20:48;23.30;99.90
25918;DHT22;13899;51.174;4.456;2023-10-09T14:23:15;23.70;99.90
25918;DHT22;13899;51.174;4.456;2023-10-09T14:25:46;24.10;99.90
25918;DHT22;13899;51.174;4.456;2023-10-09T14:28:15;24.30;99.90
25918;DHT22;13899;51.174;4.456;2023-10-09T14:30:44;24.30;99.90
25918;DHT22;13899;51.174;4.456;2023-10-09T14:33:11;24.50;99.90
25918;DHT22;13899;51.174;4.456;2023-10-09T14:35:48;24.70;99.90
25918;DHT22;13899;51.174;4.456;2023-10-09T14:38:14;24.40;99.90
25918;DHT22;13899;51.174;4.456;2023-10-09T14:40:46;24.60;99.90
25918;DHT22;13899;51.174;4.456;2023-10-09T14:43:13;24.60;99.90
25918;DHT22;13899;51.174;4.456;2023-10-09T14:45:46;24.50;99.90
25918;DHT22;13899;51.174;4.456;2023-10-09T14:48:17;24.70;99.90
25918;DHT22;13899;51.174;4.456;2023-10-09T14:50:52;24.50;99.90
25918;DHT22;13899;51.174;4.456;2023-10-09T14:53:23;24.60;99.90
25918;DHT22;13899;51.174;4.456;2023-10-09T14:55:58;24.60;99.90
25918;DHT22;13899;51.174;4.456;2023-10-09T14:58:29;24.70;99.90
25918;DHT22;13899;51.174;4.456;2023-10-09T15:01:06;25.30;99.90
25918;DHT22;13899;51.174;4.456;2023-10-09T15:03:35;26.20;99.90
25918;DHT22;13899;51.174;4.456;2023-10-09T15:06:03;27.40;99.90
25918;DHT22;13899;51.174;4.456;2023-10-09T15:08:28;27.00;99.90
25918;DHT22;13899;51.174;4.456;2023-10-09T15:10:55;27.70;99.90
25918;DHT22;13899;51.174;4.456;2023-10-09T15:13:24;28.30;99.90
25918;DHT22;13899;51.174;4.456;2023-10-09T15:15:56;28.80;99.90
25918;DHT22;13899;51.174;4.456;2023-10-09T15:18:22;28.70;99.90
25918;DHT22;13899;51.174;4.456;2023-10-09T15:20:48;28.30;99.90
25918;DHT22;13899;51.174;4.456;2023-10-09T15:23:14;27.60;99.90
25918;DHT22;13899;51.174;4.456;2023-10-09T15:25:40;26.90;99.90
25918;DHT22;13899;51.174;4.456;2023-10-09T15:28:11;26.50;99.90
25918;DHT22;13899;51.174;4.456;2023-10-09T15:30:37;25.90;99.90
25918;DHT22;13899;51.174;4.456;2023-10-09T15:33:06;25.60;99.90
25918;DHT22;13899;51.174;4.456;2023-10-09T15:35:33;24.90;99.90
25918;DHT22;13899;51.174;4.456;2023-10-09T15:38:02;25.00;99.90
25918;DHT22;13899;51.174;4.456;2023-10-09T15:40:31;25.00;99.90
25918;DHT22;13899;51.174;4.456;2023-10-09T15:42:59;24.60;99.90
25918;DHT22;13899;51.174;4.456;2023-10-09T15:45:25;24.60;99.90
25918;DHT22;13899;51.174;4.456;2023-10-09T15:47:54;24.60;99.90
25918;DHT22;13899;51.174;4.456;2023-10-09T15:50:20;24.50;99.90
25918;DHT22;13899;51.174;4.456;2023-10-09T15:52:52;24.50;99.90
25918;DHT22;13899;51.174;4.456;2023-10-09T15:55:22;24.40;99.90
25918;DHT22;13899;51.174;4.456;2023-10-09T15:57:50;24.40;99.90
25918;DHT22;13899;51.174;4.456;2023-10-09T16:00:23;24.20;99.90
25918;DHT22;13899;51.174;4.456;2023-10-09T16:02:54;24.00;99.90
25918;DHT22;13899;51.174;4.456;2023-10-09T16:05:52;23.80;99.90
25918;DHT22;13899;51.174;4.456;2023-10-09T16:08:18;23.60;99.90
25918;DHT22;13899;51.174;4.456;2023-10-09T16:10:45;23.50;99.90
25918;DHT22;13899;51.174;4.456;2023-10-09T16:13:15;23.40;99.90
25918;DHT22;13899;51.174;4.456;2023-10-09T16:15:42;23.40;99.90
25918;DHT22;13899;51.174;4.456;2023-10-09T16:18:10;23.70;99.90
25918;DHT22;13899;51.174;4.456;2023-10-09T16:20:36;23.70;99.90
25918;DHT22;13899;51.174;4.456;2023-10-09T16:23:03;23.70;99.90
25918;DHT22;13899;51.174;4.456;2023-10-09T16:25:32;23.60;99.90
25918;DHT22;13899;51.174;4.456;2023-10-09T16:28:01;23.70;99.90
25918;DHT22;13899;51.174;4.456;2023-10-09T16:30:28;23.50;99.90
25918;DHT22;13899;51.174;4.456;2023-10-09T16:32:54;23.40;99.90
25918;DHT22;13899;51.174;4.456;2023-10-09T16:35:20;23.40;99.90